sensor_id;sensor_type;location;lat;lon;timestamp;P1;durP1;ratioP1;P2;durP2;ratioP2
44130;SDS011;29792;48.726;9.248;2024-03-08T00:00:51;23.15;;;15.90;;
44130;SDS011;29792;48.726;9.248;2024-03-08T00:03:16;23.15;;;16.38;;
44130;SDS011;29792;48.726;9.248;2024-03-08T00:05:42;25.80;;;17.65;;
44130;SDS011;29792;48.726;9.248;2024-03-08T00:08:12;20.70;;;16.05;;
44130;SDS011;29792;48.726;9.248;2024-03-08T00:10:37;25.52;;;16.60;;
44130;SDS011;29792;48.726;9.248;2024-03-08T00:13:03;20.50;;;14.75;;
44130;SDS011;29792;48.726;9.248;2024-03-08T00:15:29;21.05;;;14.77;;
44130;SDS011;29792;48.726;9.248;2024-03-08T00:17:54;24.08;;;17.73;;
44130;SDS011;29792;48.726;9.248;2024-03-08T00:20:20;18.70;;;14.75;;
44130;SDS011;29792;48.726;9.248;2024-03-08T00:22:45;26.35;;;16.80;;
44130;SDS011;29792;48.726;9.248;2024-03-08T00:25:11;23.80;;;15.77;;
44130;SDS011;29792;48.726;9.248;2024-03-08T00:27:40;25.27;;;16.48;;
44130;SDS011;29792;48.726;9.248;2024-03-08T00:30:06;23.50;;;15.02;;
44130;SDS011;29792;48.726;9.248;2024-03-08T00:32:32;23.00;;;15.75;;
44130;SDS011;29792;48.726;9.248;2024-03-08T00:34:57;23.30;;;16.38;;
44130;SDS011;29792;48.726;9.248;2024-03-08T00:37:23;25.02;;;16.27;;
44130;SDS011;29792;48.726;9.248;2024-03-08T00:39:48;22.20;;;15.35;;
44130;SDS011;29792;48.726;9.248;2024-03-08T00:42:14;24.77;;;17.77;;
44130;SDS011;29792;48.726;9.248;2024-03-08T00:44:40;24.73;;;16.58;;
44130;SDS011;29792;48.726;9.248;2024-03-08T00:47:05;21.60;;;14.30;;
44130;SDS011;29792;48.726;9.248;2024-03-08T00:49:31;19.05;;;14.60;;
44130;SDS011;29792;48.726;9.248;2024-03-08T00:51:56;26.25;;;18.08;;
44130;SDS011;29792;48.726;9.248;2024-03-08T00:54:21;23.23;;;16.30;;
44130;SDS011;29792;48.726;9.248;2024-03-08T00:56:47;20.02;;;14.13;;
44130;SDS011;29792;48.726;9.248;2024-03-08T00:59:12;24.55;;;16.17;;
44130;SDS011;29792;48.726;9.248;2024-03-08T01:01:39;25.00;;;17.67;;
44130;SDS011;29792;48.726;9.248;2024-03-08T01:04:05;22.25;;;15.43;;
44130;SDS011;29792;48.726;9.248;2024-03-08T01:06:30;25.15;;;17.38;;
44130;SDS011;29792;48.726;9.248;2024-03-08T01:08:55;23.77;;;15.75;;
44130;SDS011;29792;48.726;9.248;2024-03-08T01:11:20;26.40;;;15.93;;
44130;SDS011;29792;48.726;9.248;2024-03-08T01:13:46;26.80;;;16.85;;
44130;SDS011;29792;48.726;9.248;2024-03-08T01:16:12;23.63;;;17.42;;
44130;SDS011;29792;48.726;9.248;2024-03-08T01:18:37;22.10;;;16.00;;
44130;SDS011;29792;48.726;9.248;2024-03-08T01:21:03;25.58;;;15.65;;
44130;SDS011;29792;48.726;9.248;2024-03-08T01:23:29;26.08;;;17.60;;
44130;SDS011;29792;48.726;9.248;2024-03-08T01:25:54;21.17;;;15.80;;
44130;SDS011;29792;48.726;9.248;2024-03-08T01:28:22;23.90;;;16.20;;
44130;SDS011;29792;48.726;9.248;2024-03-08T01:30:49;21.95;;;14.57;;
44130;SDS011;29792;48.726;9.248;2024-03-08T01:33:20;22.70;;;16.90;;
44130;SDS011;29792;48.726;9.248;2024-03-08T01:35:47;22.38;;;15.05;;
44130;SDS011;29792;48.726;9.248;2024-03-08T01:38:12;20.48;;;15.68;;
44130;SDS011;29792;48.726;9.248;2024-03-08T01:40:38;23.02;;;17.40;;
44130;SDS011;29792;48.726;9.248;2024-03-08T01:43:21;20.58;;;15.30;;
44130;SDS011;29792;48.726;9.248;2024-03-08T01:45:49;23.17;;;14.40;;
44130;SDS011;29792;48.726;9.248;2024-03-08T01:48:15;22.15;;;15.05;;
44130;SDS011;29792;48.726;9.248;2024-03-08T01:50:42;23.27;;;14.88;;
44130;SDS011;29792;48.726;9.248;2024-03-08T01:53:08;23.88;;;14.70;;
44130;SDS011;29792;48.726;9.248;2024-03-08T01:55:38;21.13;;;14.93;;
44130;SDS011;29792;48.726;9.248;2024-03-08T01:58:04;19.00;;;14.82;;
44130;SDS011;29792;48.726;9.248;2024-03-08T02:00:30;21.00;;;14.60;;
44130;SDS011;29792;48.726;9.248;2024-03-08T02:02:57;22.60;;;16.27;;
44130;SDS011;29792;48.726;9.248;2024-03-08T02:05:23;18.52;;;13.07;;
44130;SDS011;29792;48.726;9.248;2024-03-08T02:07:48;20.50;;;15.55;;
44130;SDS011;29792;48.726;9.248;2024-03-08T02:10:14;20.25;;;14.85;;
44130;SDS011;29792;48.726;9.248;2024-03-08T02:12:39;24.10;;;15.00;;
44130;SDS011;29792;48.726;9.248;2024-03-08T02:15:05;19.55;;;14.30;;
44130;SDS011;29792;48.726;9.248;2024-03-08T02:17:31;18.02;;;12.63;;
44130;SDS011;29792;48.726;9.248;2024-03-08T02:19:58;20.98;;;14.57;;
44130;SDS011;29792;48.726;9.248;2024-03-08T02:22:26;22.05;;;13.50;;
44130;SDS011;29792;48.726;9.248;2024-03-08T02:24:51;26.20;;;15.32;;
44130;SDS011;29792;48.726;9.248;2024-03-08T02:27:22;19.80;;;14.45;;
44130;SDS011;29792;48.726;9.248;2024-03-08T02:29:49;21.58;;;15.57;;
44130;SDS011;29792;48.726;9.248;2024-03-08T02:32:15;18.90;;;12.75;;
44130;SDS011;29792;48.726;9.248;2024-03-08T02:34:40;19.95;;;14.18;;
44130;SDS011;29792;48.726;9.248;2024-03-08T02:37:06;19.20;;;13.57;;
44130;SDS011;29792;48.726;9.248;2024-03-08T02:39:31;22.50;;;14.65;;
44130;SDS011;29792;48.726;9.248;2024-03-08T02:41:57;17.33;;;12.50;;
44130;SDS011;29792;48.726;9.248;2024-03-08T02:44:22;24.13;;;16.05;;
44130;SDS011;29792;48.726;9.248;2024-03-08T02:46:48;22.33;;;14.18;;
44130;SDS011;29792;48.726;9.248;2024-03-08T02:49:13;20.33;;;13.23;;
44130;SDS011;29792;48.726;9.248;2024-03-08T02:51:38;21.60;;;12.85;;
44130;SDS011;29792;48.726;9.248;2024-03-08T02:54:04;20.52;;;13.48;;
44130;SDS011;29792;48.726;9.248;2024-03-08T02:56:29;21.42;;;14.60;;
44130;SDS011;29792;48.726;9.248;2024-03-08T02:58:55;21.17;;;13.00;;
44130;SDS011;29792;48.726;9.248;2024-03-08T03:01:20;20.63;;;14.25;;
44130;SDS011;29792;48.726;9.248;2024-03-08T03:03:45;21.10;;;12.68;;
44130;SDS011;29792;48.726;9.248;2024-03-08T03:06:12;19.20;;;12.25;;
44130;SDS011;29792;48.726;9.248;2024-03-08T03:08:37;21.38;;;15.43;;
44130;SDS011;29792;48.726;9.248;2024-03-08T03:11:03;20.63;;;14.20;;
44130;SDS011;29792;48.726;9.248;2024-03-08T03:13:29;20.00;;;13.98;;
44130;SDS011;29792;48.726;9.248;2024-03-08T03:15:54;22.95;;;14.65;;
44130;SDS011;29792;48.726;9.248;2024-03-08T03:18:20;18.67;;;13.18;;
44130;SDS011;29792;48.726;9.248;2024-03-08T03:20:48;19.55;;;12.70;;
44130;SDS011;29792;48.726;9.248;2024-03-08T03:23:14;23.48;;;14.30;;
44130;SDS011;29792;48.726;9.248;2024-03-08T03:25:39;23.33;;;14.30;;
44130;SDS011;29792;48.726;9.248;2024-03-08T03:28:06;23.15;;;15.00;;
44130;SDS011;29792;48.726;9.248;2024-03-08T03:30:32;22.65;;;13.82;;
44130;SDS011;29792;48.726;9.248;2024-03-08T03:33:00;20.67;;;13.60;;
44130;SDS011;29792;48.726;9.248;2024-03-08T03:35:26;22.35;;;14.10;;
44130;SDS011;29792;48.726;9.248;2024-03-08T03:37:54;20.83;;;13.93;;
44130;SDS011;29792;48.726;9.248;2024-03-08T03:40:32;21.50;;;14.57;;
44130;SDS011;29792;48.726;9.248;2024-03-08T03:42:58;19.90;;;14.35;;
44130;SDS011;29792;48.726;9.248;2024-03-08T03:45:24;21.60;;;14.88;;
44130;SDS011;29792;48.726;9.248;2024-03-08T03:47:49;24.08;;;14.90;;
44130;SDS011;29792;48.726;9.248;2024-03-08T03:50:15;22.90;;;15.18;;
44130;SDS011;29792;48.726;9.248;2024-03-08T03:52:40;21.30;;;14.32;;
44130;SDS011;29792;48.726;9.248;2024-03-08T03:55:07;23.38;;;14.02;;
44130;SDS011;29792;48.726;9.248;2024-03-08T03:57:33;23.65;;;15.95;;
44130;SDS011;29792;48.726;9.248;2024-03-08T03:59:58;22.15;;;14.00;;
44130;SDS011;29792;48.726;9.248;2024-03-08T04:02:24;25.58;;;16.73;;
44130;SDS011;29792;48.726;9.248;2024-03-08T04:04:51;21.40;;;14.38;;
44130;SDS011;29792;48.726;9.248;2024-03-08T04:07:17;22.27;;;15.57;;
44130;SDS011;29792;48.726;9.248;2024-03-08T04:09:42;22.23;;;14.85;;
44130;SDS011;29792;48.726;9.248;2024-03-08T04:12:07;23.10;;;15.75;;
44130;SDS011;29792;48.726;9.248;2024-03-08T04:14:34;24.00;;;16.55;;
44130;SDS011;29792;48.726;9.248;2024-03-08T04:17:00;25.40;;;16.95;;
44130;SDS011;29792;48.726;9.248;2024-03-08T04:19:26;22.70;;;15.30;;
44130;SDS011;29792;48.726;9.248;2024-03-08T04:21:53;20.35;;;13.80;;
44130;SDS011;29792;48.726;9.248;2024-03-08T04:24:18;22.63;;;14.85;;
44130;SDS011;29792;48.726;9.248;2024-03-08T04:26:43;22.88;;;15.10;;
44130;SDS011;29792;48.726;9.248;2024-03-08T04:29:08;24.40;;;17.05;;
44130;SDS011;29792;48.726;9.248;2024-03-08T04:31:34;21.92;;;15.27;;
44130;SDS011;29792;48.726;9.248;2024-03-08T04:33:59;21.58;;;14.70;;
44130;SDS011;29792;48.726;9.248;2024-03-08T04:36:24;23.27;;;16.08;;
44130;SDS011;29792;48.726;9.248;2024-03-08T04:38:49;23.67;;;16.35;;
44130;SDS011;29792;48.726;9.248;2024-03-08T04:41:16;24.30;;;16.27;;
44130;SDS011;29792;48.726;9.248;2024-03-08T04:43:41;23.15;;;16.02;;
44130;SDS011;29792;48.726;9.248;2024-03-08T04:46:07;22.67;;;15.63;;
44130;SDS011;29792;48.726;9.248;2024-03-08T04:48:32;23.77;;;16.58;;
44130;SDS011;29792;48.726;9.248;2024-03-08T04:50:58;27.20;;;16.75;;
44130;SDS011;29792;48.726;9.248;2024-03-08T04:53:23;23.05;;;15.70;;
44130;SDS011;29792;48.726;9.248;2024-03-08T04:55:48;22.80;;;14.77;;
44130;SDS011;29792;48.726;9.248;2024-03-08T04:58:14;24.27;;;15.90;;
44130;SDS011;29792;48.726;9.248;2024-03-08T05:00:39;22.27;;;15.32;;
44130;SDS011;29792;48.726;9.248;2024-03-08T05:03:04;22.70;;;16.30;;
44130;SDS011;29792;48.726;9.248;2024-03-08T05:05:30;24.92;;;16.20;;
44130;SDS011;29792;48.726;9.248;2024-03-08T05:07:56;23.73;;;16.55;;
44130;SDS011;29792;48.726;9.248;2024-03-08T05:10:21;25.23;;;17.42;;
44130;SDS011;29792;48.726;9.248;2024-03-08T05:12:46;25.83;;;17.05;;
44130;SDS011;29792;48.726;9.248;2024-03-08T05:15:12;21.65;;;15.77;;
44130;SDS011;29792;48.726;9.248;2024-03-08T05:17:37;24.25;;;15.90;;
44130;SDS011;29792;48.726;9.248;2024-03-08T05:20:02;22.67;;;16.13;;
44130;SDS011;29792;48.726;9.248;2024-03-08T05:22:29;23.75;;;16.75;;
44130;SDS011;29792;48.726;9.248;2024-03-08T05:24:54;26.25;;;15.40;;
44130;SDS011;29792;48.726;9.248;2024-03-08T05:27:19;22.00;;;16.10;;
44130;SDS011;29792;48.726;9.248;2024-03-08T05:29:44;22.23;;;15.10;;
44130;SDS011;29792;48.726;9.248;2024-03-08T05:32:11;24.63;;;16.30;;
44130;SDS011;29792;48.726;9.248;2024-03-08T05:34:37;22.33;;;16.80;;
44130;SDS011;29792;48.726;9.248;2024-03-08T05:37:02;26.25;;;16.20;;
44130;SDS011;29792;48.726;9.248;2024-03-08T05:39:28;25.08;;;14.95;;
44130;SDS011;29792;48.726;9.248;2024-03-08T05:41:53;22.80;;;15.48;;
44130;SDS011;29792;48.726;9.248;2024-03-08T05:44:20;24.83;;;16.85;;
44130;SDS011;29792;48.726;9.248;2024-03-08T05:46:45;26.35;;;16.42;;
44130;SDS011;29792;48.726;9.248;2024-03-08T05:49:13;25.88;;;15.50;;
44130;SDS011;29792;48.726;9.248;2024-03-08T05:51:39;23.15;;;15.50;;
44130;SDS011;29792;48.726;9.248;2024-03-08T05:54:05;28.98;;;18.35;;
44130;SDS011;29792;48.726;9.248;2024-03-08T05:56:32;28.13;;;16.33;;
44130;SDS011;29792;48.726;9.248;2024-03-08T05:58:57;24.50;;;15.05;;
44130;SDS011;29792;48.726;9.248;2024-03-08T06:01:23;22.67;;;16.00;;
44130;SDS011;29792;48.726;9.248;2024-03-08T06:03:49;23.80;;;15.55;;
44130;SDS011;29792;48.726;9.248;2024-03-08T06:06:14;28.13;;;17.00;;
44130;SDS011;29792;48.726;9.248;2024-03-08T06:08:40;26.63;;;15.45;;
44130;SDS011;29792;48.726;9.248;2024-03-08T06:11:07;25.55;;;17.33;;
44130;SDS011;29792;48.726;9.248;2024-03-08T06:13:33;23.33;;;16.38;;
44130;SDS011;29792;48.726;9.248;2024-03-08T06:15:59;24.83;;;16.00;;
44130;SDS011;29792;48.726;9.248;2024-03-08T06:18:25;23.02;;;16.50;;
44130;SDS011;29792;48.726;9.248;2024-03-08T06:20:50;24.77;;;16.83;;
44130;SDS011;29792;48.726;9.248;2024-03-08T06:23:16;25.00;;;17.48;;
44130;SDS011;29792;48.726;9.248;2024-03-08T06:25:43;25.77;;;16.48;;
44130;SDS011;29792;48.726;9.248;2024-03-08T06:28:08;22.98;;;16.55;;
44130;SDS011;29792;48.726;9.248;2024-03-08T06:30:34;23.65;;;15.32;;
44130;SDS011;29792;48.726;9.248;2024-03-08T06:32:59;21.38;;;15.10;;
44130;SDS011;29792;48.726;9.248;2024-03-08T06:35:25;24.67;;;16.33;;
44130;SDS011;29792;48.726;9.248;2024-03-08T06:37:50;23.80;;;15.98;;
44130;SDS011;29792;48.726;9.248;2024-03-08T06:40:15;21.33;;;16.75;;
44130;SDS011;29792;48.726;9.248;2024-03-08T06:42:41;28.23;;;17.83;;
44130;SDS011;29792;48.726;9.248;2024-03-08T06:45:06;23.52;;;16.00;;
44130;SDS011;29792;48.726;9.248;2024-03-08T06:47:34;27.15;;;16.38;;
44130;SDS011;29792;48.726;9.248;2024-03-08T06:49:59;27.58;;;17.38;;
44130;SDS011;29792;48.726;9.248;2024-03-08T06:52:24;26.88;;;17.52;;
44130;SDS011;29792;48.726;9.248;2024-03-08T06:54:50;26.77;;;16.35;;
44130;SDS011;29792;48.726;9.248;2024-03-08T06:57:17;24.13;;;16.10;;
44130;SDS011;29792;48.726;9.248;2024-03-08T06:59:42;27.55;;;18.10;;
44130;SDS011;29792;48.726;9.248;2024-03-08T07:02:07;23.40;;;16.38;;
44130;SDS011;29792;48.726;9.248;2024-03-08T07:04:36;21.08;;;16.48;;
44130;SDS011;29792;48.726;9.248;2024-03-08T07:07:03;26.42;;;18.77;;
44130;SDS011;29792;48.726;9.248;2024-03-08T07:09:29;28.05;;;16.60;;
44130;SDS011;29792;48.726;9.248;2024-03-08T07:11:54;20.60;;;15.90;;
44130;SDS011;29792;48.726;9.248;2024-03-08T07:14:23;22.35;;;16.27;;
44130;SDS011;29792;48.726;9.248;2024-03-08T07:16:49;24.88;;;17.73;;
44130;SDS011;29792;48.726;9.248;2024-03-08T07:19:15;26.50;;;19.20;;
44130;SDS011;29792;48.726;9.248;2024-03-08T07:21:41;23.02;;;15.75;;
44130;SDS011;29792;48.726;9.248;2024-03-08T07:24:07;22.38;;;17.00;;
44130;SDS011;29792;48.726;9.248;2024-03-08T07:26:52;26.08;;;17.40;;
44130;SDS011;29792;48.726;9.248;2024-03-08T07:29:19;22.17;;;16.25;;
44130;SDS011;29792;48.726;9.248;2024-03-08T07:31:44;24.30;;;15.90;;
44130;SDS011;29792;48.726;9.248;2024-03-08T07:34:15;25.92;;;16.40;;
44130;SDS011;29792;48.726;9.248;2024-03-08T07:36:41;25.52;;;17.10;;
44130;SDS011;29792;48.726;9.248;2024-03-08T07:39:07;23.70;;;17.15;;
44130;SDS011;29792;48.726;9.248;2024-03-08T07:41:36;24.08;;;17.42;;
44130;SDS011;29792;48.726;9.248;2024-03-08T07:44:02;25.73;;;17.17;;
44130;SDS011;29792;48.726;9.248;2024-03-08T07:46:28;28.00;;;17.35;;
44130;SDS011;29792;48.726;9.248;2024-03-08T07:48:54;22.27;;;15.05;;
44130;SDS011;29792;48.726;9.248;2024-03-08T07:51:19;22.30;;;15.32;;
44130;SDS011;29792;48.726;9.248;2024-03-08T07:53:45;19.42;;;14.63;;
44130;SDS011;29792;48.726;9.248;2024-03-08T07:56:10;23.75;;;15.93;;
44130;SDS011;29792;48.726;9.248;2024-03-08T07:58:38;20.88;;;14.88;;
44130;SDS011;29792;48.726;9.248;2024-03-08T08:01:05;23.63;;;15.43;;
44130;SDS011;29792;48.726;9.248;2024-03-08T08:03:31;22.20;;;16.38;;
44130;SDS011;29792;48.726;9.248;2024-03-08T08:05:56;24.65;;;16.80;;
44130;SDS011;29792;48.726;9.248;2024-03-08T08:08:21;25.35;;;16.88;;
44130;SDS011;29792;48.726;9.248;2024-03-08T08:10:46;21.58;;;15.80;;
44130;SDS011;29792;48.726;9.248;2024-03-08T08:13:12;26.73;;;16.90;;
44130;SDS011;29792;48.726;9.248;2024-03-08T08:15:37;23.13;;;15.80;;
44130;SDS011;29792;48.726;9.248;2024-03-08T08:18:03;22.10;;;17.08;;
44130;SDS011;29792;48.726;9.248;2024-03-08T08:20:30;23.25;;;15.90;;
44130;SDS011;29792;48.726;9.248;2024-03-08T08:22:56;21.67;;;15.40;;
44130;SDS011;29792;48.726;9.248;2024-03-08T08:25:21;21.42;;;15.63;;
44130;SDS011;29792;48.726;9.248;2024-03-08T08:27:49;24.15;;;16.90;;
44130;SDS011;29792;48.726;9.248;2024-03-08T08:30:14;23.80;;;15.02;;
44130;SDS011;29792;48.726;9.248;2024-03-08T08:32:40;22.92;;;17.05;;
44130;SDS011;29792;48.726;9.248;2024-03-08T08:35:07;19.75;;;15.30;;
44130;SDS011;29792;48.726;9.248;2024-03-08T08:37:34;22.08;;;16.08;;
44130;SDS011;29792;48.726;9.248;2024-03-08T08:40:02;19.90;;;14.93;;
44130;SDS011;29792;48.726;9.248;2024-03-08T08:42:34;22.55;;;14.88;;
44130;SDS011;29792;48.726;9.248;2024-03-08T08:44:59;22.05;;;15.90;;
44130;SDS011;29792;48.726;9.248;2024-03-08T08:47:26;22.27;;;16.40;;
44130;SDS011;29792;48.726;9.248;2024-03-08T08:49:51;22.58;;;15.43;;
44130;SDS011;29792;48.726;9.248;2024-03-08T08:52:16;22.10;;;15.00;;
44130;SDS011;29792;48.726;9.248;2024-03-08T08:54:42;22.83;;;15.90;;
44130;SDS011;29792;48.726;9.248;2024-03-08T08:57:09;20.02;;;15.32;;
44130;SDS011;29792;48.726;9.248;2024-03-08T08:59:35;21.95;;;15.55;;
44130;SDS011;29792;48.726;9.248;2024-03-08T09:02:04;22.45;;;15.07;;
44130;SDS011;29792;48.726;9.248;2024-03-08T09:04:33;21.25;;;14.40;;
44130;SDS011;29792;48.726;9.248;2024-03-08T09:07:00;21.95;;;15.15;;
44130;SDS011;29792;48.726;9.248;2024-03-08T09:09:27;21.45;;;15.55;;
44130;SDS011;29792;48.726;9.248;2024-03-08T09:11:53;21.92;;;14.80;;
44130;SDS011;29792;48.726;9.248;2024-03-08T09:14:19;19.80;;;15.40;;
44130;SDS011;29792;48.726;9.248;2024-03-08T09:16:45;21.13;;;15.20;;
44130;SDS011;29792;48.726;9.248;2024-03-08T09:19:12;19.50;;;14.90;;
44130;SDS011;29792;48.726;9.248;2024-03-08T09:21:37;23.17;;;16.10;;
44130;SDS011;29792;48.726;9.248;2024-03-08T09:24:05;19.63;;;16.02;;
44130;SDS011;29792;48.726;9.248;2024-03-08T09:26:31;22.30;;;16.00;;
44130;SDS011;29792;48.726;9.248;2024-03-08T09:28:58;21.15;;;15.63;;
44130;SDS011;29792;48.726;9.248;2024-03-08T09:31:23;22.77;;;17.10;;
44130;SDS011;29792;48.726;9.248;2024-03-08T09:33:48;23.27;;;15.15;;
44130;SDS011;29792;48.726;9.248;2024-03-08T09:36:14;19.35;;;13.35;;
44130;SDS011;29792;48.726;9.248;2024-03-08T09:38:39;20.48;;;15.20;;
44130;SDS011;29792;48.726;9.248;2024-03-08T09:41:05;20.65;;;14.25;;
44130;SDS011;29792;48.726;9.248;2024-03-08T09:43:30;23.25;;;16.27;;
44130;SDS011;29792;48.726;9.248;2024-03-08T09:45:56;19.50;;;14.23;;
44130;SDS011;29792;48.726;9.248;2024-03-08T09:48:22;21.60;;;14.18;;
44130;SDS011;29792;48.726;9.248;2024-03-08T09:50:48;18.70;;;14.27;;
44130;SDS011;29792;48.726;9.248;2024-03-08T09:53:14;18.73;;;13.73;;
44130;SDS011;29792;48.726;9.248;2024-03-08T09:55:39;18.10;;;13.90;;
44130;SDS011;29792;48.726;9.248;2024-03-08T09:58:07;19.67;;;14.02;;
44130;SDS011;29792;48.726;9.248;2024-03-08T10:00:52;19.40;;;14.15;;
44130;SDS011;29792;48.726;9.248;2024-03-08T10:03:19;18.10;;;14.10;;
44130;SDS011;29792;48.726;9.248;2024-03-08T10:05:44;20.20;;;13.88;;
44130;SDS011;29792;48.726;9.248;2024-03-08T10:08:10;21.98;;;14.85;;
44130;SDS011;29792;48.726;9.248;2024-03-08T10:10:36;17.58;;;13.32;;
44130;SDS011;29792;48.726;9.248;2024-03-08T10:13:05;19.05;;;13.32;;
44130;SDS011;29792;48.726;9.248;2024-03-08T10:15:31;19.10;;;13.00;;
44130;SDS011;29792;48.726;9.248;2024-03-08T10:17:58;16.00;;;13.68;;
44130;SDS011;29792;48.726;9.248;2024-03-08T10:20:24;20.05;;;14.30;;
44130;SDS011;29792;48.726;9.248;2024-03-08T10:22:49;20.40;;;13.85;;
44130;SDS011;29792;48.726;9.248;2024-03-08T10:25:16;18.85;;;15.20;;
44130;SDS011;29792;48.726;9.248;2024-03-08T10:27:42;17.23;;;12.77;;
44130;SDS011;29792;48.726;9.248;2024-03-08T10:30:12;16.33;;;13.05;;
44130;SDS011;29792;48.726;9.248;2024-03-08T10:32:40;18.33;;;12.93;;
44130;SDS011;29792;48.726;9.248;2024-03-08T10:35:06;18.00;;;12.57;;
44130;SDS011;29792;48.726;9.248;2024-03-08T10:37:33;21.25;;;13.75;;
44130;SDS011;29792;48.726;9.248;2024-03-08T10:40:07;17.08;;;13.60;;
44130;SDS011;29792;48.726;9.248;2024-03-08T10:42:40;18.20;;;13.02;;
44130;SDS011;29792;48.726;9.248;2024-03-08T10:47:56;16.55;;;12.23;;
44130;SDS011;29792;48.726;9.248;2024-03-08T10:50:30;16.27;;;13.13;;
44130;SDS011;29792;48.726;9.248;2024-03-08T10:52:59;17.50;;;12.20;;
44130;SDS011;29792;48.726;9.248;2024-03-08T10:55:26;19.25;;;13.30;;
44130;SDS011;29792;48.726;9.248;2024-03-08T10:57:53;16.25;;;12.82;;
44130;SDS011;29792;48.726;9.248;2024-03-08T11:00:19;16.33;;;11.80;;
44130;SDS011;29792;48.726;9.248;2024-03-08T11:02:51;20.60;;;15.38;;
44130;SDS011;29792;48.726;9.248;2024-03-08T11:08:17;18.13;;;13.35;;
44130;SDS011;29792;48.726;9.248;2024-03-08T11:10:46;17.27;;;13.20;;
44130;SDS011;29792;48.726;9.248;2024-03-08T11:13:33;17.52;;;13.10;;
44130;SDS011;29792;48.726;9.248;2024-03-08T11:16:00;17.90;;;12.95;;
44130;SDS011;29792;48.726;9.248;2024-03-08T11:18:26;16.65;;;12.65;;
44130;SDS011;29792;48.726;9.248;2024-03-08T11:20:54;15.25;;;11.82;;
44130;SDS011;29792;48.726;9.248;2024-03-08T11:23:22;17.17;;;12.95;;
44130;SDS011;29792;48.726;9.248;2024-03-08T11:25:48;16.65;;;13.68;;
44130;SDS011;29792;48.726;9.248;2024-03-08T11:28:20;17.42;;;13.20;;
44130;SDS011;29792;48.726;9.248;2024-03-08T11:33:23;16.05;;;12.98;;
44130;SDS011;29792;48.726;9.248;2024-03-08T11:35:51;16.55;;;14.00;;
44130;SDS011;29792;48.726;9.248;2024-03-08T11:38:16;15.73;;;12.82;;
44130;SDS011;29792;48.726;9.248;2024-03-08T11:40:42;16.77;;;13.80;;
44130;SDS011;29792;48.726;9.248;2024-03-08T11:43:07;19.85;;;14.52;;
44130;SDS011;29792;48.726;9.248;2024-03-08T11:45:36;16.95;;;13.32;;
44130;SDS011;29792;48.726;9.248;2024-03-08T11:48:02;19.85;;;13.57;;
44130;SDS011;29792;48.726;9.248;2024-03-08T11:50:28;18.52;;;12.90;;
44130;SDS011;29792;48.726;9.248;2024-03-08T11:52:59;18.58;;;14.00;;
44130;SDS011;29792;48.726;9.248;2024-03-08T11:55:25;16.45;;;12.45;;
44130;SDS011;29792;48.726;9.248;2024-03-08T11:57:58;19.05;;;13.90;;
44130;SDS011;29792;48.726;9.248;2024-03-08T12:00:24;16.50;;;13.32;;
44130;SDS011;29792;48.726;9.248;2024-03-08T12:03:04;16.08;;;12.63;;
44130;SDS011;29792;48.726;9.248;2024-03-08T12:05:31;16.33;;;14.25;;
44130;SDS011;29792;48.726;9.248;2024-03-08T12:07:58;18.08;;;14.27;;
44130;SDS011;29792;48.726;9.248;2024-03-08T12:10:23;18.27;;;15.30;;
44130;SDS011;29792;48.726;9.248;2024-03-08T12:12:51;19.13;;;14.68;;
44130;SDS011;29792;48.726;9.248;2024-03-08T12:15:20;15.70;;;12.48;;
44130;SDS011;29792;48.726;9.248;2024-03-08T12:17:48;19.45;;;16.27;;
44130;SDS011;29792;48.726;9.248;2024-03-08T12:22:47;18.33;;;14.30;;
44130;SDS011;29792;48.726;9.248;2024-03-08T12:25:14;19.98;;;14.23;;
44130;SDS011;29792;48.726;9.248;2024-03-08T12:27:41;18.10;;;14.45;;
44130;SDS011;29792;48.726;9.248;2024-03-08T12:32:54;18.45;;;14.73;;
44130;SDS011;29792;48.726;9.248;2024-03-08T12:35:21;18.42;;;14.73;;
44130;SDS011;29792;48.726;9.248;2024-03-08T12:37:52;22.23;;;15.25;;
44130;SDS011;29792;48.726;9.248;2024-03-08T12:40:18;20.77;;;15.00;;
44130;SDS011;29792;48.726;9.248;2024-03-08T12:42:50;22.25;;;14.68;;
44130;SDS011;29792;48.726;9.248;2024-03-08T12:45:15;21.55;;;15.15;;
44130;SDS011;29792;48.726;9.248;2024-03-08T12:47:41;20.27;;;14.57;;
44130;SDS011;29792;48.726;9.248;2024-03-08T12:50:07;17.50;;;13.88;;
44130;SDS011;29792;48.726;9.248;2024-03-08T12:52:33;19.02;;;14.90;;
44130;SDS011;29792;48.726;9.248;2024-03-08T12:54:59;18.45;;;14.45;;
44130;SDS011;29792;48.726;9.248;2024-03-08T12:57:28;17.23;;;13.80;;
44130;SDS011;29792;48.726;9.248;2024-03-08T12:59:54;16.77;;;14.32;;
44130;SDS011;29792;48.726;9.248;2024-03-08T13:02:19;17.08;;;13.68;;
44130;SDS011;29792;48.726;9.248;2024-03-08T13:04:46;17.17;;;14.02;;
44130;SDS011;29792;48.726;9.248;2024-03-08T13:07:20;18.83;;;12.10;;
44130;SDS011;29792;48.726;9.248;2024-03-08T13:09:45;18.00;;;14.98;;
44130;SDS011;29792;48.726;9.248;2024-03-08T13:12:11;19.75;;;14.20;;
44130;SDS011;29792;48.726;9.248;2024-03-08T13:14:36;17.55;;;13.75;;
44130;SDS011;29792;48.726;9.248;2024-03-08T13:17:02;16.05;;;13.02;;
44130;SDS011;29792;48.726;9.248;2024-03-08T13:19:29;17.42;;;12.35;;
44130;SDS011;29792;48.726;9.248;2024-03-08T13:21:54;17.70;;;12.60;;
44130;SDS011;29792;48.726;9.248;2024-03-08T13:24:19;16.67;;;14.10;;
44130;SDS011;29792;48.726;9.248;2024-03-08T13:26:44;16.65;;;12.50;;
44130;SDS011;29792;48.726;9.248;2024-03-08T13:29:10;16.40;;;12.73;;
44130;SDS011;29792;48.726;9.248;2024-03-08T13:31:35;16.10;;;13.32;;
44130;SDS011;29792;48.726;9.248;2024-03-08T13:34:01;15.68;;;12.35;;
44130;SDS011;29792;48.726;9.248;2024-03-08T13:36:26;17.40;;;13.98;;
44130;SDS011;29792;48.726;9.248;2024-03-08T13:39:00;13.05;;;11.68;;
44130;SDS011;29792;48.726;9.248;2024-03-08T13:41:25;15.40;;;12.95;;
44130;SDS011;29792;48.726;9.248;2024-03-08T13:43:50;15.57;;;12.95;;
44130;SDS011;29792;48.726;9.248;2024-03-08T13:46:16;14.10;;;11.65;;
44130;SDS011;29792;48.726;9.248;2024-03-08T13:48:42;16.42;;;12.02;;
44130;SDS011;29792;48.726;9.248;2024-03-08T13:51:08;17.48;;;14.43;;
44130;SDS011;29792;48.726;9.248;2024-03-08T13:53:37;16.38;;;13.70;;
44130;SDS011;29792;48.726;9.248;2024-03-08T13:56:02;15.75;;;12.63;;
44130;SDS011;29792;48.726;9.248;2024-03-08T13:58:28;16.42;;;12.98;;
44130;SDS011;29792;48.726;9.248;2024-03-08T14:00:53;16.10;;;13.82;;
44130;SDS011;29792;48.726;9.248;2024-03-08T14:03:20;14.77;;;12.45;;
44130;SDS011;29792;48.726;9.248;2024-03-08T14:05:45;15.85;;;12.40;;
44130;SDS011;29792;48.726;9.248;2024-03-08T14:08:11;16.35;;;12.57;;
44130;SDS011;29792;48.726;9.248;2024-03-08T14:10:37;18.30;;;13.55;;
44130;SDS011;29792;48.726;9.248;2024-03-08T14:13:03;15.63;;;13.07;;
44130;SDS011;29792;48.726;9.248;2024-03-08T14:15:30;14.77;;;12.23;;
44130;SDS011;29792;48.726;9.248;2024-03-08T14:17:56;15.98;;;12.45;;
44130;SDS011;29792;48.726;9.248;2024-03-08T14:20:22;15.32;;;13.05;;
44130;SDS011;29792;48.726;9.248;2024-03-08T14:22:50;15.18;;;12.45;;
44130;SDS011;29792;48.726;9.248;2024-03-08T14:25:16;16.70;;;12.30;;
44130;SDS011;29792;48.726;9.248;2024-03-08T14:27:43;14.73;;;13.23;;
44130;SDS011;29792;48.726;9.248;2024-03-08T14:30:09;17.55;;;13.65;;